createdAt,value
2019-02-21T00:00:40.674Z,5.60
2019-02-21T00:02:35.407Z,5.60
2019-02-21T00:04:30.205Z,5.60
2019-02-21T00:06:24.816Z,5.50
2019-02-21T00:08:19.623Z,5.50
2019-02-21T00:10:14.786Z,5.50
2019-02-21T00:12:08.997Z,5.50
2019-02-21T00:14:03.715Z,5.50
2019-02-21T00:15:58.851Z,5.50
2019-02-21T00:17:53.451Z,5.50
2019-02-21T00:19:47.703Z,5.50
2019-02-21T00:21:42.779Z,5.50
2019-02-21T00:23:37.350Z,5.60
2019-02-21T00:25:31.958Z,5.60
2019-02-21T00:27:26.847Z,5.60
2019-02-21T00:29:21.752Z,5.50
2019-02-21T00:31:16.057Z,5.50
2019-02-21T00:33:10.738Z,5.50
2019-02-21T00:35:05.070Z,5.50
2019-02-21T00:36:59.884Z,5.50
2019-02-21T00:38:54.742Z,5.40
2019-02-21T00:40:49.499Z,5.50
2019-02-21T00:42:43.958Z,5.40
2019-02-21T00:44:37.898Z,5.40
2019-02-21T00:46:32.483Z,5.40
2019-02-21T00:48:26.343Z,5.30
2019-02-21T00:50:22.051Z,5.30
2019-02-21T00:52:16.539Z,5.30
2019-02-21T00:54:11.182Z,5.30
2019-02-21T00:56:06.239Z,5.30
2019-02-21T00:58:01.010Z,5.30
2019-02-21T00:59:54.868Z,5.30
2019-02-21T01:01:49.475Z,5.30
2019-02-21T01:03:43.654Z,5.40
2019-02-21T01:05:38.577Z,5.40
2019-02-21T01:07:33.328Z,5.50
2019-02-21T01:09:27.349Z,5.50
2019-02-21T01:11:22.224Z,5.50
2019-02-21T01:13:17.011Z,5.50
2019-02-21T01:15:11.945Z,5.50
2019-02-21T01:17:05.851Z,5.50
2019-02-21T01:18:59.954Z,5.50
2019-02-21T01:20:54.441Z,5.50
2019-02-21T01:22:49.591Z,5.50
2019-02-21T01:24:43.740Z,5.50
2019-02-21T01:26:38.714Z,5.50
2019-02-21T01:28:33.306Z,5.50
2019-02-21T01:30:28.034Z,5.50
2019-02-21T01:32:22.987Z,5.40
2019-02-21T01:34:17.533Z,5.50
2019-02-21T01:36:12.143Z,5.50
2019-02-21T01:38:06.553Z,5.50
2019-02-21T01:40:01.120Z,5.50
2019-02-21T01:41:55.863Z,5.50
2019-02-21T01:43:50.650Z,5.60
2019-02-21T01:45:44.700Z,5.60
2019-02-21T01:47:38.782Z,5.60
2019-02-21T01:49:33.699Z,5.60
2019-02-21T01:51:28.436Z,5.60
2019-02-21T01:53:23.096Z,5.60
2019-02-21T01:55:18.009Z,5.60
2019-02-21T01:57:21.333Z,5.50
2019-02-21T01:59:19.281Z,5.50
2019-02-21T02:01:15.116Z,5.40
2019-02-21T02:03:11.244Z,5.40
2019-02-21T02:05:07.039Z,5.30
2019-02-21T02:07:01.915Z,5.30
2019-02-21T02:08:56.183Z,5.20
2019-02-21T02:10:50.891Z,5.20
2019-02-21T02:12:45.809Z,5.20
2019-02-21T02:14:40.541Z,5.20
2019-02-21T02:16:38.718Z,5.20
2019-02-21T02:18:33.152Z,5.10
2019-02-21T02:20:27.895Z,5.10
2019-02-21T02:22:21.991Z,5.10
2019-02-21T02:24:16.047Z,5.10
2019-02-21T02:26:11.187Z,5.10
2019-02-21T02:28:06.330Z,5.10
2019-02-21T02:30:00.402Z,5.00
2019-02-21T02:31:55.464Z,5.00
2019-02-21T02:33:50.253Z,5.10
2019-02-21T02:35:44.758Z,5.10
2019-02-21T02:37:38.832Z,5.10
2019-02-21T02:39:33.833Z,5.20
2019-02-21T02:41:28.367Z,5.20
2019-02-21T02:43:23.437Z,5.30
2019-02-21T02:45:18.358Z,5.30
2019-02-21T02:47:12.978Z,5.30
2019-02-21T02:49:07.085Z,5.30
2019-02-21T02:51:02.850Z,5.30
2019-02-21T02:52:58.024Z,5.30
2019-02-21T02:54:52.368Z,5.20
2019-02-21T02:56:47.118Z,5.10
2019-02-21T02:58:41.262Z,5.10
2019-02-21T03:00:35.325Z,5.00
2019-02-21T03:02:30.647Z,5.00
2019-02-21T03:04:24.759Z,5.00
2019-02-21T03:06:19.615Z,4.90
2019-02-21T03:08:13.560Z,4.90
2019-02-21T03:10:08.543Z,4.90
2019-02-21T03:12:03.685Z,4.90
2019-02-21T03:13:58.396Z,4.90
2019-02-21T03:15:52.764Z,4.90
2019-02-21T03:17:47.802Z,4.90
2019-02-21T03:19:42.529Z,4.90
2019-02-21T03:21:37.454Z,4.80
2019-02-21T03:23:31.456Z,4.80
2019-02-21T03:25:26.607Z,4.80
2019-02-21T03:27:21.272Z,4.90
2019-02-21T03:29:16.175Z,4.90
2019-02-21T03:31:10.028Z,4.90
2019-02-21T03:33:05.089Z,4.90
2019-02-21T03:34:59.894Z,4.90
2019-02-21T03:36:54.277Z,4.90
2019-02-21T03:38:48.484Z,4.90
2019-02-21T03:40:43.846Z,5.00
2019-02-21T03:42:38.997Z,5.00
2019-02-21T03:44:33.948Z,5.00
2019-02-21T03:46:28.842Z,5.00
2019-02-21T03:48:23.563Z,5.00
2019-02-21T03:50:18.359Z,5.10
2019-02-21T03:52:13.118Z,5.10
2019-02-21T03:54:08.391Z,5.10
2019-02-21T03:56:03.122Z,5.10
2019-02-21T03:57:57.875Z,5.00
2019-02-21T03:59:52.491Z,5.00
2019-02-21T04:01:47.535Z,5.00
2019-02-21T04:03:41.873Z,4.90
2019-02-21T04:05:36.630Z,4.80
2019-02-21T04:07:30.605Z,4.80
2019-02-21T04:09:24.717Z,4.80
2019-02-21T04:11:19.578Z,4.70
2019-02-21T04:13:15.300Z,4.70
2019-02-21T04:15:11.512Z,4.70
2019-02-21T04:17:05.725Z,4.70
2019-02-21T04:19:00.674Z,4.60
2019-02-21T04:20:55.328Z,4.70
2019-02-21T04:22:50.323Z,4.60
2019-02-21T04:24:45.116Z,4.60
2019-02-21T04:26:39.262Z,4.60
2019-02-21T04:28:34.372Z,4.60
2019-02-21T04:30:28.248Z,4.50
2019-02-21T04:32:23.167Z,4.50
2019-02-21T04:34:18.248Z,4.50
2019-02-21T04:36:12.836Z,4.50
2019-02-21T04:38:07.572Z,4.50
2019-02-21T04:40:01.833Z,4.50
2019-02-21T04:41:55.865Z,4.40
2019-02-21T04:43:50.008Z,4.40
2019-02-21T04:45:44.768Z,4.40
2019-02-21T04:47:38.780Z,4.40
2019-02-21T04:49:33.619Z,4.30
2019-02-21T04:51:28.374Z,4.30
2019-02-21T04:53:22.387Z,4.30
2019-02-21T04:55:17.095Z,4.30
2019-02-21T04:57:11.217Z,4.20
2019-02-21T04:59:06.734Z,4.20
2019-02-21T05:01:01.476Z,4.20
2019-02-21T05:02:56.364Z,4.20
2019-02-21T05:04:51.075Z,4.10
2019-02-21T05:06:45.126Z,4.10
2019-02-21T05:08:39.590Z,4.10
2019-02-21T05:10:34.430Z,4.10
2019-02-21T05:12:29.260Z,4.10
2019-02-21T05:14:24.367Z,4.10
2019-02-21T05:16:18.330Z,4.10
2019-02-21T05:18:12.261Z,4.10
2019-02-21T05:20:07.359Z,4.10
2019-02-21T05:22:01.871Z,4.10
2019-02-21T05:23:55.891Z,4.10
2019-02-21T05:25:50.943Z,4.00
2019-02-21T05:28:10.458Z,4.00
2019-02-21T05:30:06.280Z,4.00
2019-02-21T05:32:26.435Z,4.00
2019-02-21T05:34:29.843Z,3.90
2019-02-21T05:36:55.281Z,3.90
2019-02-21T05:39:12.330Z,3.80
2019-02-21T05:41:24.875Z,3.80
2019-02-21T05:43:38.582Z,3.70
2019-02-21T05:45:51.794Z,3.70
2019-02-21T05:47:52.945Z,3.70
2019-02-21T05:49:52.451Z,3.70
2019-02-21T05:51:54.531Z,3.70
2019-02-21T05:54:17.511Z,3.70
2019-02-21T05:56:17.795Z,3.70
2019-02-21T05:58:43.034Z,3.60
2019-02-21T06:00:55.810Z,3.60
2019-02-21T06:02:57.523Z,3.60
2019-02-21T06:05:20.312Z,3.70
2019-02-21T06:07:22.885Z,3.70
2019-02-21T06:09:23.784Z,3.70
2019-02-21T06:11:24.550Z,3.60
2019-02-21T06:13:26.785Z,3.70
2019-02-21T06:15:39.790Z,3.70
2019-02-21T06:17:59.614Z,3.70
2019-02-21T06:20:13.286Z,3.70
2019-02-21T06:22:29.316Z,3.80
2019-02-21T06:24:34.343Z,3.80
2019-02-21T06:26:39.430Z,3.80
2019-02-21T06:28:55.775Z,3.80
2019-02-21T06:30:58.538Z,3.90
2019-02-21T06:32:52.620Z,3.90
2019-02-21T06:34:46.358Z,3.90
2019-02-21T06:36:41.004Z,3.90
2019-02-21T06:38:35.655Z,3.90
2019-02-21T06:40:31.163Z,4.00
2019-02-21T06:42:26.014Z,4.00
2019-02-21T06:44:19.892Z,4.10
2019-02-21T06:46:14.490Z,4.20
2019-02-21T06:48:09.563Z,4.20
2019-02-21T06:50:03.838Z,4.30
2019-02-21T06:51:58.712Z,4.40
2019-02-21T06:53:53.306Z,4.40
2019-02-21T06:55:48.267Z,4.50
2019-02-21T06:57:42.744Z,4.50
2019-02-21T06:59:42.482Z,4.50
2019-02-21T07:01:33.292Z,4.60
2019-02-21T07:03:29.089Z,4.60
2019-02-21T07:05:23.682Z,4.70
2019-02-21T07:07:18.216Z,4.70
2019-02-21T07:09:12.618Z,4.80
2019-02-21T07:11:06.760Z,4.80
2019-02-21T07:13:02.293Z,4.90
2019-02-21T07:14:57.205Z,4.90
2019-02-21T07:16:52.075Z,5.00
2019-02-21T07:18:46.863Z,5.10
2019-02-21T07:20:41.626Z,5.20
2019-02-21T07:22:35.979Z,5.30
2019-02-21T07:24:30.994Z,5.40
2019-02-21T07:26:25.303Z,5.40
2019-02-21T07:28:19.598Z,5.50
2019-02-21T07:30:20.039Z,5.50
2019-02-21T07:32:10.251Z,5.60
2019-02-21T07:34:06.986Z,5.70
2019-02-21T07:36:02.680Z,5.70
2019-02-21T07:37:57.619Z,5.70
2019-02-21T07:39:51.671Z,5.80
2019-02-21T07:41:46.835Z,5.90
2019-02-21T07:43:41.538Z,5.90
2019-02-21T07:45:36.593Z,5.90
2019-02-21T07:47:31.275Z,6.00
2019-02-21T07:49:26.018Z,6.00
2019-02-21T07:51:20.544Z,6.10
2019-02-21T07:53:15.591Z,6.20
2019-02-21T07:55:10.661Z,6.30
2019-02-21T07:57:08.487Z,6.30
2019-02-21T07:59:01.996Z,6.40
2019-02-21T08:00:56.473Z,6.40
2019-02-21T08:02:51.515Z,6.50
2019-02-21T08:04:46.306Z,6.60
2019-02-21T08:06:40.295Z,6.60
2019-02-21T08:08:35.350Z,6.70
2019-02-21T08:10:33.758Z,6.80
2019-02-21T08:12:26.356Z,6.90
2019-02-21T08:14:20.750Z,7.00
2019-02-21T08:16:14.842Z,7.00
2019-02-21T08:18:09.238Z,7.10
2019-02-21T08:20:08.305Z,7.20
2019-02-21T08:22:00.294Z,7.30
2019-02-21T08:23:54.367Z,7.40
2019-02-21T08:25:49.301Z,7.50
2019-02-21T08:27:43.368Z,7.50
2019-02-21T08:29:37.938Z,7.70
2019-02-21T08:31:32.691Z,7.70
2019-02-21T08:33:30.670Z,7.90
2019-02-21T08:35:25.311Z,7.90
2019-02-21T08:37:19.407Z,8.00
2019-02-21T08:39:15.382Z,8.00
2019-02-21T08:41:10.307Z,8.10
2019-02-21T08:43:05.050Z,8.20
2019-02-21T08:44:59.049Z,8.30
2019-02-21T08:46:54.590Z,8.40
2019-02-21T08:48:49.895Z,8.50
2019-02-21T08:50:44.399Z,8.60
2019-02-21T08:52:39.292Z,8.70
2019-02-21T08:54:33.232Z,8.90
2019-02-21T08:56:29.874Z,8.90
2019-02-21T08:58:24.466Z,9.10
2019-02-21T09:00:18.338Z,9.20
2019-02-21T09:02:13.262Z,9.30
2019-02-21T09:04:11.719Z,9.40
2019-02-21T09:06:03.069Z,9.50
2019-02-21T09:07:58.066Z,9.60
2019-02-21T09:09:52.951Z,9.70
2019-02-21T09:11:47.796Z,9.80
2019-02-21T09:13:42.109Z,9.90
2019-02-21T09:15:37.142Z,9.90
2019-02-21T09:17:32.179Z,10.00
2019-02-21T09:19:30.519Z,10.10
2019-02-21T09:21:24.915Z,10.10
2019-02-21T09:23:19.182Z,10.20
2019-02-21T09:25:13.721Z,10.30
2019-02-21T09:27:08.467Z,10.40
2019-02-21T09:29:02.772Z,10.60
2019-02-21T09:30:57.816Z,11.00
2019-02-21T09:32:52.302Z,11.30
2019-02-21T09:34:47.041Z,11.20
2019-02-21T09:36:41.118Z,11.20
2019-02-21T09:38:35.404Z,11.10
2019-02-21T09:40:30.152Z,11.20
2019-02-21T09:42:24.509Z,11.20
2019-02-21T09:44:18.539Z,11.20
2019-02-21T09:46:13.669Z,11.30
2019-02-21T09:48:08.125Z,11.40
2019-02-21T09:50:04.263Z,11.40
2019-02-21T09:51:59.164Z,11.50
2019-02-21T09:53:53.811Z,11.60
2019-02-21T09:55:50.306Z,11.80
2019-02-21T09:57:44.842Z,11.90
2019-02-21T09:59:39.626Z,11.80
2019-02-21T10:01:34.898Z,11.70
2019-02-21T10:03:30.164Z,11.50
2019-02-21T10:05:25.086Z,11.50
2019-02-21T10:07:19.183Z,11.60
2019-02-21T10:09:13.138Z,11.70
2019-02-21T10:11:07.818Z,11.80
2019-02-21T10:13:02.068Z,11.90
2019-02-21T10:14:57.592Z,12.00
2019-02-21T10:16:51.880Z,12.10
2019-02-21T10:18:46.914Z,12.20
2019-02-21T10:20:41.220Z,12.20
2019-02-21T10:22:36.299Z,12.40
2019-02-21T10:24:31.488Z,12.60
2019-02-21T10:26:25.493Z,12.80
2019-02-21T10:28:20.340Z,13.10
2019-02-21T10:30:16.430Z,13.50
2019-02-21T10:32:10.288Z,13.80
2019-02-21T10:34:05.026Z,13.90
2019-02-21T10:36:00.638Z,14.10
2019-02-21T10:37:56.423Z,14.20
2019-02-21T10:39:50.890Z,14.10
2019-02-21T10:41:45.602Z,14.20
2019-02-21T10:43:39.390Z,14.30
2019-02-21T10:45:33.961Z,14.40
2019-02-21T10:47:28.875Z,14.40
2019-02-21T10:49:23.792Z,14.30
2019-02-21T10:51:18.883Z,14.20
2019-02-21T10:53:12.864Z,14.10
2019-02-21T10:55:07.781Z,13.90
2019-02-21T10:57:01.711Z,13.70
2019-02-21T10:58:56.162Z,13.60
2019-02-21T11:00:50.855Z,13.40
2019-02-21T11:02:45.640Z,13.30
2019-02-21T11:04:42.216Z,13.20
2019-02-21T11:06:36.725Z,13.10
2019-02-21T11:08:31.116Z,13.20
2019-02-21T11:10:27.306Z,13.20
2019-02-21T11:12:22.366Z,13.20
2019-02-21T11:14:17.605Z,13.20
2019-02-21T11:16:11.379Z,13.30
2019-02-21T11:18:05.544Z,13.30
2019-02-21T11:19:59.729Z,13.30
2019-02-21T11:21:54.160Z,13.30
2019-02-21T11:23:48.278Z,13.50
2019-02-21T11:25:43.192Z,13.40
2019-02-21T11:27:38.114Z,13.30
2019-02-21T11:29:32.659Z,13.20
2019-02-21T11:31:28.011Z,13.10
2019-02-21T11:33:22.244Z,13.00
2019-02-21T11:35:16.914Z,12.90
2019-02-21T11:37:11.867Z,12.70
2019-02-21T11:39:07.727Z,12.50
2019-02-21T11:41:02.788Z,12.50
2019-02-21T11:42:56.856Z,12.40
2019-02-21T11:44:50.805Z,12.50
2019-02-21T11:46:45.567Z,12.50
2019-02-21T11:48:40.896Z,12.70
2019-02-21T11:50:35.742Z,13.00
2019-02-21T11:52:30.839Z,13.30
2019-02-21T11:54:27.227Z,13.60
2019-02-21T11:56:22.354Z,13.80
2019-02-21T11:58:17.411Z,14.00
2019-02-21T12:00:15.706Z,14.40
2019-02-21T12:02:11.020Z,14.70
2019-02-21T12:04:04.971Z,14.90
2019-02-21T12:05:59.634Z,15.00
2019-02-21T12:07:54.014Z,15.00
2019-02-21T12:09:48.678Z,15.00
2019-02-21T12:11:43.610Z,14.80
2019-02-21T12:13:38.095Z,14.60
2019-02-21T12:15:32.114Z,14.60
2019-02-21T12:17:26.751Z,14.50
2019-02-21T12:19:21.864Z,14.30
2019-02-21T12:21:16.444Z,14.30
2019-02-21T12:23:10.874Z,14.30
2019-02-21T12:25:15.388Z,14.20
2019-02-21T12:27:11.024Z,14.20
2019-02-21T12:29:05.574Z,14.10
2019-02-21T12:30:59.807Z,14.20
2019-02-21T12:32:54.198Z,14.30
2019-02-21T12:34:48.755Z,14.30
2019-02-21T12:36:43.666Z,14.50
2019-02-21T12:38:38.308Z,14.60
2019-02-21T12:40:32.863Z,14.80
2019-02-21T12:42:27.408Z,14.60
2019-02-21T12:44:21.590Z,14.50
2019-02-21T12:46:16.030Z,14.70
2019-02-21T12:48:10.896Z,14.70
2019-02-21T12:50:06.905Z,14.70
2019-02-21T12:52:01.582Z,14.70
2019-02-21T12:53:55.841Z,14.80
2019-02-21T12:55:50.202Z,14.90
2019-02-21T12:57:45.067Z,14.80
2019-02-21T12:59:39.937Z,14.90
2019-02-21T13:01:34.138Z,14.90
2019-02-21T13:03:28.987Z,14.80
2019-02-21T13:05:24.148Z,14.70
2019-02-21T13:07:20.044Z,14.70
2019-02-21T13:09:14.751Z,14.70
2019-02-21T13:11:09.510Z,14.80
2019-02-21T13:13:04.571Z,14.90
2019-02-21T13:14:59.569Z,15.00
2019-02-21T13:16:54.691Z,15.10
2019-02-21T13:18:49.926Z,15.20
2019-02-21T13:20:44.181Z,15.20
2019-02-21T13:22:38.739Z,15.30
2019-02-21T13:24:32.820Z,15.40
2019-02-21T13:26:27.796Z,15.50
2019-02-21T13:28:22.813Z,15.50
2019-02-21T13:30:17.590Z,15.60
2019-02-21T13:32:11.671Z,15.70
2019-02-21T13:34:06.104Z,15.80
2019-02-21T13:36:00.825Z,15.90
2019-02-21T13:37:55.663Z,15.70
2019-02-21T13:39:49.913Z,15.50
2019-02-21T13:41:43.950Z,15.50
2019-02-21T13:43:38.689Z,15.50
2019-02-21T13:45:33.539Z,15.50
2019-02-21T13:47:28.486Z,15.60
2019-02-21T13:49:23.269Z,15.50
2019-02-21T13:51:18.045Z,15.40
2019-02-21T13:53:12.670Z,15.20
2019-02-21T13:55:07.532Z,15.00
2019-02-21T13:57:01.641Z,14.90
2019-02-21T13:58:55.549Z,14.70
2019-02-21T14:00:50.166Z,14.60
2019-02-21T14:02:44.746Z,14.30
2019-02-21T14:04:39.667Z,14.20
2019-02-21T14:06:33.800Z,14.10
2019-02-21T14:08:28.176Z,14.00
2019-02-21T14:10:22.938Z,14.10
2019-02-21T14:12:17.587Z,14.10
2019-02-21T14:14:12.375Z,14.20
2019-02-21T14:16:06.613Z,14.20
2019-02-21T14:18:01.234Z,14.20
2019-02-21T14:19:56.459Z,14.20
2019-02-21T14:21:51.380Z,14.20
2019-02-21T14:23:45.916Z,14.00
2019-02-21T14:25:41.307Z,14.00
2019-02-21T14:27:36.277Z,14.00
2019-02-21T14:29:38.862Z,14.00
2019-02-21T14:31:26.518Z,14.00
2019-02-21T14:33:21.339Z,14.00
2019-02-21T14:35:16.029Z,14.00
2019-02-21T14:37:10.979Z,14.00
2019-02-21T14:39:06.555Z,13.90
2019-02-21T14:41:01.828Z,13.80
2019-02-21T14:42:55.727Z,13.70
2019-02-21T14:44:50.419Z,13.60
2019-02-21T14:46:45.094Z,13.50
2019-02-21T14:48:39.292Z,13.40
2019-02-21T14:50:35.943Z,13.30
2019-02-21T14:52:29.431Z,13.10
2019-02-21T14:54:23.620Z,13.00
2019-02-21T14:56:20.130Z,12.90
2019-02-21T14:58:14.615Z,12.90
2019-02-21T15:00:17.652Z,12.90
2019-02-21T15:02:11.939Z,12.90
2019-02-21T15:04:05.893Z,13.00
2019-02-21T15:06:01.014Z,13.00
2019-02-21T15:07:55.817Z,13.10
2019-02-21T15:09:50.075Z,13.20
2019-02-21T15:11:44.154Z,13.30
2019-02-21T15:13:38.253Z,13.40
2019-02-21T15:15:32.710Z,13.50
2019-02-21T15:17:28.482Z,13.60
2019-02-21T15:19:22.895Z,13.60
2019-02-21T15:21:17.533Z,13.60
2019-02-21T15:23:12.376Z,13.50
2019-02-21T15:25:07.756Z,13.40
2019-02-21T15:27:08.409Z,13.40
2019-02-21T15:29:00.048Z,13.30
2019-02-21T15:30:54.874Z,13.30
2019-02-21T15:32:49.210Z,13.20
2019-02-21T15:34:43.718Z,13.10
2019-02-21T15:36:38.648Z,13.10
2019-02-21T15:38:33.751Z,13.00
2019-02-21T15:40:28.306Z,12.90
2019-02-21T15:42:22.701Z,12.90
2019-02-21T15:44:17.895Z,12.80
2019-02-21T15:46:12.440Z,12.80
2019-02-21T15:48:07.021Z,12.70
2019-02-21T15:50:01.862Z,12.70
2019-02-21T15:51:57.862Z,12.70
2019-02-21T15:53:52.643Z,12.60
2019-02-21T15:55:46.888Z,12.60
2019-02-21T15:57:41.127Z,12.50
2019-02-21T15:59:35.708Z,12.50
2019-02-21T16:01:30.506Z,12.40
2019-02-21T16:03:25.462Z,12.40
2019-02-21T16:05:20.435Z,12.40
2019-02-21T16:07:15.335Z,12.40
2019-02-21T16:09:16.154Z,12.40
2019-02-21T16:11:05.809Z,12.40
2019-02-21T16:13:02.257Z,12.40
2019-02-21T16:14:55.873Z,12.30
2019-02-21T16:16:51.101Z,12.30
2019-02-21T16:18:46.762Z,12.30
2019-02-21T16:20:40.766Z,12.30
2019-02-21T16:22:35.369Z,12.30
2019-02-21T16:24:29.530Z,12.20
2019-02-21T16:26:24.262Z,12.20
2019-02-21T16:28:18.573Z,12.20
2019-02-21T16:30:12.880Z,12.20
2019-02-21T16:32:07.418Z,12.20
2019-02-21T16:34:01.711Z,12.10
2019-02-21T16:35:55.671Z,12.10
2019-02-21T16:37:50.434Z,12.10
2019-02-21T16:39:45.536Z,12.00
2019-02-21T16:41:40.483Z,11.90
2019-02-21T16:43:34.390Z,11.90
2019-02-21T16:45:39.965Z,11.80
2019-02-21T16:47:24.767Z,11.70
2019-02-21T16:49:19.605Z,11.70
2019-02-21T16:51:14.554Z,11.70
2019-02-21T16:53:09.734Z,11.70
2019-02-21T16:55:04.859Z,11.60
2019-02-21T16:56:59.468Z,11.60
2019-02-21T16:58:55.139Z,11.60
2019-02-21T17:00:54.653Z,11.60
2019-02-21T17:02:44.823Z,11.60
2019-02-21T17:04:38.743Z,11.60
2019-02-21T17:06:33.618Z,11.50
2019-02-21T17:08:28.271Z,11.60
2019-02-21T17:10:22.875Z,11.60
2019-02-21T17:12:17.354Z,11.60
2019-02-21T17:14:11.919Z,11.60
2019-02-21T17:16:07.913Z,11.50
2019-02-21T17:18:03.798Z,11.60
2019-02-21T17:19:58.034Z,11.50
2019-02-21T17:21:52.810Z,11.50
2019-02-21T17:23:48.011Z,11.50
2019-02-21T17:25:42.462Z,11.50
2019-02-21T17:27:36.943Z,11.40
2019-02-21T17:29:31.658Z,11.40
2019-02-21T17:31:26.279Z,11.30
2019-02-21T17:33:20.380Z,11.30
2019-02-21T17:35:14.960Z,11.20
2019-02-21T17:37:09.654Z,11.20
2019-02-21T17:39:04.214Z,11.20
2019-02-21T17:41:00.184Z,11.20
2019-02-21T17:42:54.342Z,11.10
2019-02-21T17:44:48.828Z,11.10
2019-02-21T17:46:43.522Z,11.10
2019-02-21T17:48:38.208Z,11.10
2019-02-21T17:50:33.019Z,11.10
2019-02-21T17:52:26.910Z,11.10
2019-02-21T17:54:20.960Z,11.10
2019-02-21T17:56:15.131Z,11.20
2019-02-21T17:58:09.842Z,11.20
2019-02-21T18:00:06.663Z,11.10
2019-02-21T18:02:01.237Z,11.10
2019-02-21T18:03:56.313Z,11.10
2019-02-21T18:05:50.903Z,11.00
2019-02-21T18:07:45.940Z,11.00
2019-02-21T18:09:40.476Z,10.90
2019-02-21T18:11:35.389Z,10.90
2019-02-21T18:13:32.826Z,10.80
2019-02-21T18:15:26.710Z,10.80
2019-02-21T18:17:21.694Z,10.70
2019-02-21T18:19:16.289Z,10.70
2019-02-21T18:21:11.268Z,10.70
2019-02-21T18:23:06.920Z,10.70
2019-02-21T18:25:01.813Z,10.70
2019-02-21T18:26:57.881Z,10.70
2019-02-21T18:28:53.592Z,10.70
2019-02-21T18:30:49.195Z,10.70
2019-02-21T18:32:44.306Z,10.70
2019-02-21T18:34:38.710Z,10.70
2019-02-21T18:36:33.238Z,10.70
2019-02-21T18:38:27.786Z,10.70
2019-02-21T18:40:22.647Z,10.60
2019-02-21T18:42:16.993Z,10.50
2019-02-21T18:44:11.357Z,10.50
2019-02-21T18:46:06.391Z,10.50
2019-02-21T18:48:00.887Z,10.50
2019-02-21T18:49:55.651Z,10.40
2019-02-21T18:51:50.274Z,10.40
2019-02-21T18:53:44.733Z,10.40
2019-02-21T18:55:39.156Z,10.40
2019-02-21T18:57:34.347Z,10.40
2019-02-21T18:59:31.911Z,10.40
2019-02-21T19:01:26.140Z,10.40
2019-02-21T19:03:20.313Z,10.30
2019-02-21T19:05:15.099Z,10.30
2019-02-21T19:07:10.425Z,10.20
2019-02-21T19:09:07.364Z,10.20
2019-02-21T19:11:02.236Z,10.20
2019-02-21T19:12:56.628Z,10.20
2019-02-21T19:14:51.251Z,10.10
2019-02-21T19:16:45.391Z,10.10
2019-02-21T19:18:40.122Z,10.00
2019-02-21T19:20:34.102Z,9.90
2019-02-21T19:22:29.356Z,9.90
2019-02-21T19:24:24.306Z,9.80
2019-02-21T19:26:19.421Z,9.80
2019-02-21T19:28:14.531Z,9.80
2019-02-21T19:30:32.864Z,9.80
2019-02-21T19:32:26.714Z,9.80
2019-02-21T19:34:21.578Z,9.80
2019-02-21T19:36:16.696Z,9.70
2019-02-21T19:38:11.057Z,9.70
2019-02-21T19:40:07.859Z,9.70
2019-02-21T19:42:02.650Z,9.60
2019-02-21T19:43:56.629Z,9.60
2019-02-21T19:45:51.320Z,9.50
2019-02-21T19:47:47.431Z,9.50
2019-02-21T19:49:42.286Z,9.50
2019-02-21T19:51:37.427Z,9.60
2019-02-21T19:53:31.459Z,9.60
2019-02-21T19:55:26.414Z,9.60
2019-02-21T19:57:20.827Z,9.60
2019-02-21T19:59:15.812Z,9.60
2019-02-21T20:01:10.109Z,9.60
2019-02-21T20:03:04.462Z,9.60
2019-02-21T20:04:58.852Z,9.60
2019-02-21T20:06:53.290Z,9.60
2019-02-21T20:08:48.022Z,9.60
2019-02-21T20:10:42.808Z,9.60
2019-02-21T20:12:37.466Z,9.60
2019-02-21T20:14:32.376Z,9.60
2019-02-21T20:16:27.055Z,9.60
2019-02-21T20:18:21.328Z,9.60
2019-02-21T20:20:16.445Z,9.60
2019-02-21T20:22:11.281Z,9.50
2019-02-21T20:24:06.059Z,9.50
2019-02-21T20:26:00.941Z,9.50
2019-02-21T20:27:56.710Z,9.50
2019-02-21T20:29:50.739Z,9.50
2019-02-21T20:31:45.477Z,9.50
2019-02-21T20:33:39.767Z,9.40
2019-02-21T20:35:34.590Z,9.40
2019-02-21T20:37:28.736Z,9.40
2019-02-21T20:39:23.493Z,9.50
2019-02-21T20:41:17.320Z,9.50
2019-02-21T20:43:11.775Z,9.50
2019-02-21T20:45:07.653Z,9.40
2019-02-21T20:47:03.020Z,9.40
2019-02-21T20:48:57.139Z,9.40
2019-02-21T20:50:56.815Z,9.40
2019-02-21T20:52:47.479Z,9.30
2019-02-21T20:54:42.333Z,9.30
2019-02-21T20:56:37.391Z,9.30
2019-02-21T20:58:31.921Z,9.30
2019-02-21T21:00:26.829Z,9.30
2019-02-21T21:02:21.199Z,9.30
2019-02-21T21:04:16.148Z,9.30
2019-02-21T21:06:10.570Z,9.30
2019-02-21T21:08:05.520Z,9.30
2019-02-21T21:09:59.686Z,9.30
2019-02-21T21:11:53.769Z,9.30
2019-02-21T21:13:47.954Z,9.30
2019-02-21T21:15:42.415Z,9.30
2019-02-21T21:17:37.387Z,9.20
2019-02-21T21:19:32.023Z,9.20
2019-02-21T21:21:26.464Z,9.10
2019-02-21T21:23:21.184Z,9.00
2019-02-21T21:25:16.336Z,8.90
2019-02-21T21:27:11.495Z,8.80
2019-02-21T21:29:05.694Z,8.70
2019-02-21T21:30:59.739Z,8.70
2019-02-21T21:32:54.136Z,8.50
2019-02-21T21:34:49.007Z,8.40
2019-02-21T21:36:43.918Z,8.40
2019-02-21T21:38:39.864Z,8.30
2019-02-21T21:40:34.525Z,8.30
2019-02-21T21:42:29.543Z,8.30
2019-02-21T21:44:24.755Z,8.30
2019-02-21T21:46:19.117Z,8.30
2019-02-21T21:48:13.814Z,8.30
2019-02-21T21:50:09.439Z,8.40
2019-02-21T21:52:03.674Z,8.40
2019-02-21T21:53:57.933Z,8.50
2019-02-21T21:55:52.995Z,8.60
2019-02-21T21:57:47.418Z,8.60
2019-02-21T21:59:41.703Z,8.70
2019-02-21T22:01:36.802Z,8.70
2019-02-21T22:03:31.677Z,8.70
2019-02-21T22:05:25.930Z,8.70
2019-02-21T22:07:20.711Z,8.70
2019-02-21T22:09:15.502Z,8.80
2019-02-21T22:11:09.595Z,8.80
2019-02-21T22:13:04.515Z,8.80
2019-02-21T22:14:59.216Z,8.80
2019-02-21T22:16:53.961Z,8.80
2019-02-21T22:18:48.270Z,8.80
2019-02-21T22:20:42.687Z,8.80
2019-02-21T22:22:37.616Z,8.80
2019-02-21T22:24:32.571Z,8.90
2019-02-21T22:26:26.633Z,8.90
2019-02-21T22:28:21.670Z,8.90
2019-02-21T22:30:16.669Z,8.90
2019-02-21T22:32:12.505Z,8.90
2019-02-21T22:34:07.506Z,8.90
2019-02-21T22:36:02.315Z,8.90
2019-02-21T22:37:57.939Z,8.90
2019-02-21T22:39:52.622Z,8.90
2019-02-21T22:41:46.343Z,9.00
2019-02-21T22:43:41.008Z,8.90
2019-02-21T22:45:35.685Z,8.90
2019-02-21T22:47:29.888Z,8.90
2019-02-21T22:49:24.476Z,8.90
2019-02-21T22:51:18.690Z,8.90
2019-02-21T22:53:13.526Z,8.90
2019-02-21T22:55:10.091Z,8.90
2019-02-21T22:57:07.715Z,8.90
2019-02-21T22:59:02.457Z,8.90
2019-02-21T23:01:24.301Z,8.90
2019-02-21T23:03:20.141Z,8.90
2019-02-21T23:05:47.295Z,8.90
2019-02-21T23:07:51.859Z,8.90
2019-02-21T23:09:46.960Z,8.90
2019-02-21T23:11:42.557Z,8.90
2019-02-21T23:13:37.602Z,8.90
2019-02-21T23:15:32.228Z,8.90
2019-02-21T23:17:26.502Z,9.00
2019-02-21T23:19:21.042Z,9.00
2019-02-21T23:21:15.807Z,9.00
2019-02-21T23:23:10.303Z,9.00
2019-02-21T23:25:05.775Z,9.00
2019-02-21T23:27:00.476Z,9.00
2019-02-21T23:28:55.108Z,9.00
2019-02-21T23:30:50.188Z,9.00
2019-02-21T23:32:44.678Z,9.00
2019-02-21T23:34:45.739Z,9.00
2019-02-21T23:36:40.630Z,9.00
2019-02-21T23:38:35.206Z,9.00
2019-02-21T23:40:30.263Z,9.00
2019-02-21T23:42:24.759Z,8.90
2019-02-21T23:44:18.866Z,9.00
2019-02-21T23:46:13.050Z,8.90
2019-02-21T23:48:07.822Z,8.90
2019-02-21T23:50:02.572Z,9.00
2019-02-21T23:51:57.487Z,8.90
2019-02-21T23:54:02.470Z,8.90
2019-02-21T23:55:47.610Z,8.90
2019-02-21T23:57:41.573Z,8.90
2019-02-21T23:59:36.612Z,8.90
